Katowice International Airport

Airport
ICAO code: 
EPKT
IATA Code: 
KTW
Summary
ICAO Region: 
EUR
Territory: 
Location: 
Pyrzowice, Silesia
Serving: 
Katowice
Elevation: 
997 ft
Coordinates: 
Aerial View: 
50° 28' 22.085" N, 19° 4' 33.173" E
Metar
Observation
EPKT 192200Z 23016KT CAVOK M00/M03 Q1014
Station
Katowice
Date/Time
2022-01-19 22:00:00
Wind direction
230°
Wind speed
16 kts
Lowest cloud amount
clouds and visibility OK
Temperature
-0°C
Dew point
-3°C
Humidity
80%
QNH
1014 hPa
Weather condition
n/a

Runways

Designator Length Width Surface Rops
9/27 2799 59 CON Yes/Yes
Airport map: 
Aerial View: 

Accidents and Serious Incidents at or in the vicinity of EPKT

SKYbrary Partners:

Safety knowledge contributed by: